sensor_id;sensor_type;location;lat;lon;timestamp;P1;durP1;ratioP1;P2;durP2;ratioP2
1082;SDS011;530;51.448;7.238;2022-07-31T00:00:37;3.13;;;2.87;;
1082;SDS011;530;51.448;7.238;2022-07-31T00:03:03;3.50;;;2.67;;
1082;SDS011;530;51.448;7.238;2022-07-31T00:05:28;3.33;;;3.03;;
1082;SDS011;530;51.448;7.238;2022-07-31T00:07:55;2.80;;;2.40;;
1082;SDS011;530;51.448;7.238;2022-07-31T00:10:21;4.50;;;2.63;;
1082;SDS011;530;51.448;7.238;2022-07-31T00:12:47;3.60;;;2.90;;
1082;SDS011;530;51.448;7.238;2022-07-31T00:15:13;2.70;;;2.50;;
1082;SDS011;530;51.448;7.238;2022-07-31T00:17:39;2.80;;;2.60;;
1082;SDS011;530;51.448;7.238;2022-07-31T00:20:06;3.07;;;2.77;;
1082;SDS011;530;51.448;7.238;2022-07-31T00:22:32;3.03;;;2.60;;
1082;SDS011;530;51.448;7.238;2022-07-31T00:24:59;5.30;;;2.90;;
1082;SDS011;530;51.448;7.238;2022-07-31T00:27:25;3.00;;;2.80;;
1082;SDS011;530;51.448;7.238;2022-07-31T00:29:51;3.30;;;2.90;;
1082;SDS011;530;51.448;7.238;2022-07-31T00:32:16;3.87;;;2.80;;
1082;SDS011;530;51.448;7.238;2022-07-31T00:34:42;5.67;;;3.13;;
1082;SDS011;530;51.448;7.238;2022-07-31T00:37:08;3.17;;;2.87;;
1082;SDS011;530;51.448;7.238;2022-07-31T00:39:34;4.23;;;3.67;;
1082;SDS011;530;51.448;7.238;2022-07-31T00:42:00;4.43;;;2.90;;
1082;SDS011;530;51.448;7.238;2022-07-31T00:44:26;4.10;;;3.60;;
1082;SDS011;530;51.448;7.238;2022-07-31T00:46:53;3.50;;;3.20;;
1082;SDS011;530;51.448;7.238;2022-07-31T00:49:19;3.23;;;3.00;;
1082;SDS011;530;51.448;7.238;2022-07-31T00:51:45;3.90;;;3.60;;
1082;SDS011;530;51.448;7.238;2022-07-31T00:54:10;3.77;;;3.43;;
1082;SDS011;530;51.448;7.238;2022-07-31T00:56:36;4.50;;;3.50;;
1082;SDS011;530;51.448;7.238;2022-07-31T00:59:02;4.50;;;3.37;;
1082;SDS011;530;51.448;7.238;2022-07-31T01:01:29;4.20;;;3.60;;
1082;SDS011;530;51.448;7.238;2022-07-31T01:03:55;4.93;;;3.27;;
1082;SDS011;530;51.448;7.238;2022-07-31T01:06:21;3.90;;;3.60;;
1082;SDS011;530;51.448;7.238;2022-07-31T01:08:47;5.03;;;3.30;;
1082;SDS011;530;51.448;7.238;2022-07-31T01:13:57;6.10;;;4.17;;
1082;SDS011;530;51.448;7.238;2022-07-31T01:16:26;5.70;;;3.33;;
1082;SDS011;530;51.448;7.238;2022-07-31T01:18:57;4.27;;;3.67;;
1082;SDS011;530;51.448;7.238;2022-07-31T01:21:32;5.40;;;3.70;;
1082;SDS011;530;51.448;7.238;2022-07-31T01:26:48;3.73;;;3.43;;
1082;SDS011;530;51.448;7.238;2022-07-31T01:29:26;3.37;;;3.07;;
1082;SDS011;530;51.448;7.238;2022-07-31T01:34:36;3.93;;;3.63;;
1082;SDS011;530;51.448;7.238;2022-07-31T01:39:42;4.30;;;2.90;;
1082;SDS011;530;51.448;7.238;2022-07-31T01:42:14;3.83;;;3.20;;
1082;SDS011;530;51.448;7.238;2022-07-31T01:44:43;4.23;;;3.40;;
1082;SDS011;530;51.448;7.238;2022-07-31T01:47:12;3.80;;;3.37;;
1082;SDS011;530;51.448;7.238;2022-07-31T01:49:40;3.87;;;3.57;;
1082;SDS011;530;51.448;7.238;2022-07-31T01:52:09;4.07;;;3.77;;
1082;SDS011;530;51.448;7.238;2022-07-31T01:54:37;3.70;;;3.40;;
1082;SDS011;530;51.448;7.238;2022-07-31T01:57:03;4.80;;;3.77;;
1082;SDS011;530;51.448;7.238;2022-07-31T01:59:31;4.00;;;3.50;;
1082;SDS011;530;51.448;7.238;2022-07-31T02:01:59;5.23;;;3.80;;
1082;SDS011;530;51.448;7.238;2022-07-31T02:04:27;4.47;;;3.77;;
1082;SDS011;530;51.448;7.238;2022-07-31T02:06:53;5.00;;;3.70;;
1082;SDS011;530;51.448;7.238;2022-07-31T02:09:20;3.73;;;3.43;;
1082;SDS011;530;51.448;7.238;2022-07-31T02:11:48;3.83;;;3.53;;
1082;SDS011;530;51.448;7.238;2022-07-31T02:14:15;5.20;;;3.53;;
1082;SDS011;530;51.448;7.238;2022-07-31T02:16:43;3.87;;;3.57;;
1082;SDS011;530;51.448;7.238;2022-07-31T02:19:11;4.23;;;3.40;;
1082;SDS011;530;51.448;7.238;2022-07-31T02:21:39;3.90;;;3.60;;
1082;SDS011;530;51.448;7.238;2022-07-31T02:24:06;6.63;;;3.50;;
1082;SDS011;530;51.448;7.238;2022-07-31T02:26:32;4.07;;;3.67;;
1082;SDS011;530;51.448;7.238;2022-07-31T02:28:59;4.37;;;3.70;;
1082;SDS011;530;51.448;7.238;2022-07-31T02:31:26;4.37;;;3.97;;
1082;SDS011;530;51.448;7.238;2022-07-31T02:33:55;3.87;;;3.47;;
1082;SDS011;530;51.448;7.238;2022-07-31T02:36:21;3.27;;;2.97;;
1082;SDS011;530;51.448;7.238;2022-07-31T02:38:48;3.80;;;3.40;;
1082;SDS011;530;51.448;7.238;2022-07-31T02:41:15;4.27;;;3.70;;
1082;SDS011;530;51.448;7.238;2022-07-31T02:43:41;4.70;;;3.80;;
1082;SDS011;530;51.448;7.238;2022-07-31T02:46:09;3.83;;;3.50;;
1082;SDS011;530;51.448;7.238;2022-07-31T02:48:36;3.83;;;3.53;;
1082;SDS011;530;51.448;7.238;2022-07-31T02:51:03;4.00;;;3.70;;
1082;SDS011;530;51.448;7.238;2022-07-31T02:53:30;3.97;;;3.57;;
1082;SDS011;530;51.448;7.238;2022-07-31T02:55:57;3.57;;;3.27;;
1082;SDS011;530;51.448;7.238;2022-07-31T02:58:25;4.07;;;3.57;;
1082;SDS011;530;51.448;7.238;2022-07-31T03:01:01;5.93;;;4.27;;
1082;SDS011;530;51.448;7.238;2022-07-31T03:03:29;4.30;;;4.00;;
1082;SDS011;530;51.448;7.238;2022-07-31T03:05:55;4.20;;;3.90;;
1082;SDS011;530;51.448;7.238;2022-07-31T03:08:21;4.27;;;3.87;;
1082;SDS011;530;51.448;7.238;2022-07-31T03:10:48;4.30;;;3.90;;
1082;SDS011;530;51.448;7.238;2022-07-31T03:13:14;3.63;;;3.17;;
1082;SDS011;530;51.448;7.238;2022-07-31T03:15:40;4.17;;;3.10;;
1082;SDS011;530;51.448;7.238;2022-07-31T03:18:08;3.80;;;3.50;;
1082;SDS011;530;51.448;7.238;2022-07-31T03:20:39;3.40;;;3.10;;
1082;SDS011;530;51.448;7.238;2022-07-31T03:23:07;3.40;;;2.97;;
1082;SDS011;530;51.448;7.238;2022-07-31T03:25:35;3.80;;;3.50;;
1082;SDS011;530;51.448;7.238;2022-07-31T03:28:01;3.53;;;3.23;;
1082;SDS011;530;51.448;7.238;2022-07-31T03:30:27;3.77;;;3.40;;
1082;SDS011;530;51.448;7.238;2022-07-31T03:32:53;3.83;;;3.47;;
1082;SDS011;530;51.448;7.238;2022-07-31T03:35:20;3.93;;;3.00;;
1082;SDS011;530;51.448;7.238;2022-07-31T03:37:46;3.83;;;3.23;;
1082;SDS011;530;51.448;7.238;2022-07-31T03:40:12;3.53;;;3.20;;
1082;SDS011;530;51.448;7.238;2022-07-31T03:42:38;4.03;;;3.37;;
1082;SDS011;530;51.448;7.238;2022-07-31T03:45:04;5.27;;;3.33;;
1082;SDS011;530;51.448;7.238;2022-07-31T03:47:31;3.37;;;3.10;;
1082;SDS011;530;51.448;7.238;2022-07-31T03:49:58;2.97;;;2.77;;
1082;SDS011;530;51.448;7.238;2022-07-31T03:52:26;4.20;;;3.60;;
1082;SDS011;530;51.448;7.238;2022-07-31T03:54:53;4.37;;;3.43;;
1082;SDS011;530;51.448;7.238;2022-07-31T03:57:19;3.20;;;2.90;;
1082;SDS011;530;51.448;7.238;2022-07-31T03:59:46;3.57;;;3.27;;
1082;SDS011;530;51.448;7.238;2022-07-31T04:02:14;3.80;;;3.40;;
1082;SDS011;530;51.448;7.238;2022-07-31T04:04:41;4.60;;;3.40;;
1082;SDS011;530;51.448;7.238;2022-07-31T04:07:07;3.43;;;3.10;;
1082;SDS011;530;51.448;7.238;2022-07-31T04:09:33;4.97;;;3.67;;
1082;SDS011;530;51.448;7.238;2022-07-31T04:11:59;3.30;;;3.10;;
1082;SDS011;530;51.448;7.238;2022-07-31T04:14:25;3.63;;;3.33;;
1082;SDS011;530;51.448;7.238;2022-07-31T04:16:50;3.53;;;3.23;;
1082;SDS011;530;51.448;7.238;2022-07-31T04:19:16;4.17;;;3.03;;
1082;SDS011;530;51.448;7.238;2022-07-31T04:21:42;3.53;;;3.20;;
1082;SDS011;530;51.448;7.238;2022-07-31T04:24:07;3.67;;;3.13;;
1082;SDS011;530;51.448;7.238;2022-07-31T04:26:35;3.60;;;2.90;;
1082;SDS011;530;51.448;7.238;2022-07-31T04:29:01;5.10;;;3.20;;
1082;SDS011;530;51.448;7.238;2022-07-31T04:31:27;6.87;;;3.20;;
1082;SDS011;530;51.448;7.238;2022-07-31T04:33:52;3.30;;;2.80;;
1082;SDS011;530;51.448;7.238;2022-07-31T04:36:18;4.00;;;3.00;;
1082;SDS011;530;51.448;7.238;2022-07-31T04:38:44;3.47;;;3.20;;
1082;SDS011;530;51.448;7.238;2022-07-31T04:41:09;2.80;;;2.60;;
1082;SDS011;530;51.448;7.238;2022-07-31T04:43:35;2.70;;;2.40;;
1082;SDS011;530;51.448;7.238;2022-07-31T04:46:01;3.83;;;3.43;;
1082;SDS011;530;51.448;7.238;2022-07-31T04:48:26;3.03;;;2.60;;
1082;SDS011;530;51.448;7.238;2022-07-31T04:50:52;3.00;;;2.70;;
1082;SDS011;530;51.448;7.238;2022-07-31T04:53:18;5.07;;;3.10;;
1082;SDS011;530;51.448;7.238;2022-07-31T04:55:43;3.40;;;3.10;;
1082;SDS011;530;51.448;7.238;2022-07-31T04:58:29;3.43;;;3.13;;
1082;SDS011;530;51.448;7.238;2022-07-31T05:00:55;3.40;;;2.90;;
1082;SDS011;530;51.448;7.238;2022-07-31T05:03:20;3.57;;;3.27;;
1082;SDS011;530;51.448;7.238;2022-07-31T05:05:46;3.60;;;2.87;;
1082;SDS011;530;51.448;7.238;2022-07-31T05:08:14;3.10;;;2.90;;
1082;SDS011;530;51.448;7.238;2022-07-31T05:10:39;3.00;;;2.70;;
1082;SDS011;530;51.448;7.238;2022-07-31T05:13:23;3.40;;;3.10;;
1082;SDS011;530;51.448;7.238;2022-07-31T05:15:49;3.83;;;3.43;;
1082;SDS011;530;51.448;7.238;2022-07-31T05:18:15;3.57;;;3.27;;
1082;SDS011;530;51.448;7.238;2022-07-31T05:20:41;3.13;;;2.80;;
1082;SDS011;530;51.448;7.238;2022-07-31T05:23:06;3.40;;;3.10;;
1082;SDS011;530;51.448;7.238;2022-07-31T05:25:32;3.23;;;2.93;;
1082;SDS011;530;51.448;7.238;2022-07-31T05:27:58;3.30;;;3.10;;
1082;SDS011;530;51.448;7.238;2022-07-31T05:30:23;3.30;;;3.00;;
1082;SDS011;530;51.448;7.238;2022-07-31T05:32:49;3.43;;;3.03;;
1082;SDS011;530;51.448;7.238;2022-07-31T05:35:15;4.37;;;3.30;;
1082;SDS011;530;51.448;7.238;2022-07-31T05:37:40;3.53;;;3.20;;
1082;SDS011;530;51.448;7.238;2022-07-31T05:40:06;4.07;;;3.37;;
1082;SDS011;530;51.448;7.238;2022-07-31T05:42:32;4.03;;;3.73;;
1082;SDS011;530;51.448;7.238;2022-07-31T05:44:58;5.97;;;3.30;;
1082;SDS011;530;51.448;7.238;2022-07-31T05:47:24;4.33;;;3.93;;
1082;SDS011;530;51.448;7.238;2022-07-31T05:49:49;4.13;;;3.13;;
1082;SDS011;530;51.448;7.238;2022-07-31T05:52:18;5.00;;;3.83;;
1082;SDS011;530;51.448;7.238;2022-07-31T05:54:44;5.00;;;3.73;;
1082;SDS011;530;51.448;7.238;2022-07-31T05:57:09;5.93;;;3.73;;
1082;SDS011;530;51.448;7.238;2022-07-31T05:59:35;4.40;;;4.00;;
1082;SDS011;530;51.448;7.238;2022-07-31T06:02:01;3.90;;;3.50;;
1082;SDS011;530;51.448;7.238;2022-07-31T06:04:27;4.53;;;3.43;;
1082;SDS011;530;51.448;7.238;2022-07-31T06:06:53;4.37;;;3.97;;
1082;SDS011;530;51.448;7.238;2022-07-31T06:09:18;4.20;;;3.90;;
1082;SDS011;530;51.448;7.238;2022-07-31T06:11:44;4.37;;;3.97;;
1082;SDS011;530;51.448;7.238;2022-07-31T06:14:10;4.80;;;4.43;;
1082;SDS011;530;51.448;7.238;2022-07-31T06:16:35;4.70;;;4.30;;
1082;SDS011;530;51.448;7.238;2022-07-31T06:19:01;5.03;;;4.60;;
1082;SDS011;530;51.448;7.238;2022-07-31T06:21:27;5.30;;;4.20;;
1082;SDS011;530;51.448;7.238;2022-07-31T06:23:52;5.00;;;4.13;;
1082;SDS011;530;51.448;7.238;2022-07-31T06:26:18;6.03;;;4.40;;
1082;SDS011;530;51.448;7.238;2022-07-31T06:28:44;5.47;;;4.00;;
1082;SDS011;530;51.448;7.238;2022-07-31T06:31:16;4.20;;;3.80;;
1082;SDS011;530;51.448;7.238;2022-07-31T06:33:43;6.27;;;4.40;;
1082;SDS011;530;51.448;7.238;2022-07-31T06:36:09;6.20;;;4.43;;
1082;SDS011;530;51.448;7.238;2022-07-31T06:38:34;4.93;;;4.37;;
1082;SDS011;530;51.448;7.238;2022-07-31T06:41:00;5.03;;;4.33;;
1082;SDS011;530;51.448;7.238;2022-07-31T06:43:26;6.43;;;4.47;;
1082;SDS011;530;51.448;7.238;2022-07-31T06:45:51;5.60;;;4.30;;
1082;SDS011;530;51.448;7.238;2022-07-31T06:48:17;4.50;;;4.10;;
1082;SDS011;530;51.448;7.238;2022-07-31T06:50:43;6.70;;;4.97;;
1082;SDS011;530;51.448;7.238;2022-07-31T06:53:08;7.77;;;4.70;;
1082;SDS011;530;51.448;7.238;2022-07-31T06:55:34;5.30;;;4.70;;
1082;SDS011;530;51.448;7.238;2022-07-31T06:58:00;6.03;;;4.70;;
1082;SDS011;530;51.448;7.238;2022-07-31T07:00:26;6.53;;;5.80;;
1082;SDS011;530;51.448;7.238;2022-07-31T07:02:51;6.27;;;5.17;;
1082;SDS011;530;51.448;7.238;2022-07-31T07:05:17;6.30;;;5.23;;
1082;SDS011;530;51.448;7.238;2022-07-31T07:07:43;8.50;;;4.57;;
1082;SDS011;530;51.448;7.238;2022-07-31T07:10:08;7.07;;;4.80;;
1082;SDS011;530;51.448;7.238;2022-07-31T07:12:34;6.63;;;5.70;;
1082;SDS011;530;51.448;7.238;2022-07-31T07:15:00;5.90;;;5.10;;
1082;SDS011;530;51.448;7.238;2022-07-31T07:17:25;4.70;;;4.30;;
1082;SDS011;530;51.448;7.238;2022-07-31T07:19:51;6.83;;;5.20;;
1082;SDS011;530;51.448;7.238;2022-07-31T07:22:17;6.97;;;5.27;;
1082;SDS011;530;51.448;7.238;2022-07-31T07:24:43;5.27;;;4.77;;
1082;SDS011;530;51.448;7.238;2022-07-31T07:27:08;9.67;;;4.67;;
1082;SDS011;530;51.448;7.238;2022-07-31T07:29:34;5.97;;;4.60;;
1082;SDS011;530;51.448;7.238;2022-07-31T07:32:00;4.53;;;4.13;;
1082;SDS011;530;51.448;7.238;2022-07-31T07:34:26;6.63;;;5.03;;
1082;SDS011;530;51.448;7.238;2022-07-31T07:36:51;6.53;;;4.73;;
1082;SDS011;530;51.448;7.238;2022-07-31T07:39:17;4.83;;;4.30;;
1082;SDS011;530;51.448;7.238;2022-07-31T07:41:43;5.10;;;4.60;;
1082;SDS011;530;51.448;7.238;2022-07-31T07:44:09;5.60;;;5.10;;
1082;SDS011;530;51.448;7.238;2022-07-31T07:46:34;5.30;;;4.60;;
1082;SDS011;530;51.448;7.238;2022-07-31T07:49:01;5.40;;;4.90;;
1082;SDS011;530;51.448;7.238;2022-07-31T07:51:27;6.73;;;5.10;;
1082;SDS011;530;51.448;7.238;2022-07-31T07:53:53;4.97;;;4.57;;
1082;SDS011;530;51.448;7.238;2022-07-31T07:56:19;6.00;;;4.10;;
1082;SDS011;530;51.448;7.238;2022-07-31T07:58:45;4.20;;;3.63;;
1082;SDS011;530;51.448;7.238;2022-07-31T08:01:13;3.90;;;3.03;;
1082;SDS011;530;51.448;7.238;2022-07-31T08:03:38;3.67;;;3.10;;
1082;SDS011;530;51.448;7.238;2022-07-31T08:06:04;5.80;;;3.43;;
1082;SDS011;530;51.448;7.238;2022-07-31T08:08:30;3.10;;;2.87;;
1082;SDS011;530;51.448;7.238;2022-07-31T08:10:55;3.43;;;2.70;;
1082;SDS011;530;51.448;7.238;2022-07-31T08:13:21;6.63;;;2.90;;
1082;SDS011;530;51.448;7.238;2022-07-31T08:15:47;3.43;;;2.80;;
1082;SDS011;530;51.448;7.238;2022-07-31T08:18:13;3.03;;;2.70;;
1082;SDS011;530;51.448;7.238;2022-07-31T08:20:39;4.37;;;3.07;;
1082;SDS011;530;51.448;7.238;2022-07-31T08:23:05;3.87;;;3.27;;
1082;SDS011;530;51.448;7.238;2022-07-31T08:25:30;3.63;;;2.67;;
1082;SDS011;530;51.448;7.238;2022-07-31T08:27:56;3.70;;;2.87;;
1082;SDS011;530;51.448;7.238;2022-07-31T08:30:22;3.37;;;2.60;;
1082;SDS011;530;51.448;7.238;2022-07-31T08:32:49;4.93;;;2.70;;
1082;SDS011;530;51.448;7.238;2022-07-31T08:35:15;4.43;;;2.97;;
1082;SDS011;530;51.448;7.238;2022-07-31T08:37:41;4.27;;;2.90;;
1082;SDS011;530;51.448;7.238;2022-07-31T08:40:07;3.23;;;2.90;;
1082;SDS011;530;51.448;7.238;2022-07-31T08:42:33;3.50;;;3.20;;
1082;SDS011;530;51.448;7.238;2022-07-31T08:45:01;3.03;;;2.73;;
1082;SDS011;530;51.448;7.238;2022-07-31T08:47:31;3.37;;;3.07;;
1082;SDS011;530;51.448;7.238;2022-07-31T08:49:57;4.30;;;2.77;;
1082;SDS011;530;51.448;7.238;2022-07-31T08:52:23;7.23;;;3.20;;
1082;SDS011;530;51.448;7.238;2022-07-31T08:54:51;2.90;;;2.67;;
1082;SDS011;530;51.448;7.238;2022-07-31T08:57:18;4.47;;;2.83;;
1082;SDS011;530;51.448;7.238;2022-07-31T08:59:44;2.93;;;2.73;;
1082;SDS011;530;51.448;7.238;2022-07-31T09:02:11;2.60;;;2.33;;
1082;SDS011;530;51.448;7.238;2022-07-31T09:04:37;4.13;;;2.70;;
1082;SDS011;530;51.448;7.238;2022-07-31T09:07:03;3.60;;;2.40;;
1082;SDS011;530;51.448;7.238;2022-07-31T09:09:30;3.70;;;2.43;;
1082;SDS011;530;51.448;7.238;2022-07-31T09:11:55;3.53;;;2.60;;
1082;SDS011;530;51.448;7.238;2022-07-31T09:14:26;3.50;;;2.50;;
1082;SDS011;530;51.448;7.238;2022-07-31T09:16:53;2.20;;;2.00;;
1082;SDS011;530;51.448;7.238;2022-07-31T09:19:21;3.20;;;2.77;;
1082;SDS011;530;51.448;7.238;2022-07-31T09:21:48;3.30;;;2.40;;
1082;SDS011;530;51.448;7.238;2022-07-31T09:24:25;3.50;;;2.70;;
1082;SDS011;530;51.448;7.238;2022-07-31T09:26:59;2.30;;;2.10;;
1082;SDS011;530;51.448;7.238;2022-07-31T09:32:10;2.27;;;2.07;;
1082;SDS011;530;51.448;7.238;2022-07-31T09:34:40;3.43;;;2.30;;
1082;SDS011;530;51.448;7.238;2022-07-31T09:37:11;3.00;;;2.70;;
1082;SDS011;530;51.448;7.238;2022-07-31T09:39:48;3.70;;;2.63;;
1082;SDS011;530;51.448;7.238;2022-07-31T09:42:15;2.40;;;2.20;;
1082;SDS011;530;51.448;7.238;2022-07-31T09:44:43;3.50;;;1.80;;
1082;SDS011;530;51.448;7.238;2022-07-31T09:47:20;1.80;;;1.70;;
1082;SDS011;530;51.448;7.238;2022-07-31T09:49:57;1.90;;;1.80;;
1082;SDS011;530;51.448;7.238;2022-07-31T09:52:25;2.43;;;1.87;;
1082;SDS011;530;51.448;7.238;2022-07-31T09:55:05;1.80;;;1.70;;
1082;SDS011;530;51.448;7.238;2022-07-31T09:57:37;5.50;;;2.20;;
1082;SDS011;530;51.448;7.238;2022-07-31T10:00:07;3.43;;;1.80;;
1082;SDS011;530;51.448;7.238;2022-07-31T10:02:34;4.10;;;1.90;;
1082;SDS011;530;51.448;7.238;2022-07-31T10:05:03;2.83;;;2.00;;
1082;SDS011;530;51.448;7.238;2022-07-31T10:07:31;3.90;;;2.43;;
1082;SDS011;530;51.448;7.238;2022-07-31T10:10:00;2.23;;;2.03;;
1082;SDS011;530;51.448;7.238;2022-07-31T10:12:28;3.27;;;2.23;;
1082;SDS011;530;51.448;7.238;2022-07-31T10:14:57;3.17;;;1.93;;
1082;SDS011;530;51.448;7.238;2022-07-31T10:17:28;2.27;;;1.80;;
1082;SDS011;530;51.448;7.238;2022-07-31T10:19:57;2.47;;;2.13;;
1082;SDS011;530;51.448;7.238;2022-07-31T10:22:26;1.90;;;1.70;;
1082;SDS011;530;51.448;7.238;2022-07-31T10:24:57;4.10;;;2.17;;
1082;SDS011;530;51.448;7.238;2022-07-31T10:27:26;3.50;;;2.27;;
1082;SDS011;530;51.448;7.238;2022-07-31T10:29:54;1.70;;;1.50;;
1082;SDS011;530;51.448;7.238;2022-07-31T10:32:21;2.70;;;2.00;;
1082;SDS011;530;51.448;7.238;2022-07-31T10:34:46;2.50;;;2.10;;
1082;SDS011;530;51.448;7.238;2022-07-31T10:37:21;2.40;;;2.10;;
1082;SDS011;530;51.448;7.238;2022-07-31T10:40:18;2.53;;;2.33;;
1082;SDS011;530;51.448;7.238;2022-07-31T10:42:51;2.87;;;2.67;;
1082;SDS011;530;51.448;7.238;2022-07-31T10:45:50;3.70;;;2.73;;
1082;SDS011;530;51.448;7.238;2022-07-31T10:48:17;3.67;;;2.00;;
1082;SDS011;530;51.448;7.238;2022-07-31T10:50:44;2.63;;;2.00;;
1082;SDS011;530;51.448;7.238;2022-07-31T10:53:14;3.07;;;2.20;;
1082;SDS011;530;51.448;7.238;2022-07-31T10:55:41;4.03;;;2.37;;
1082;SDS011;530;51.448;7.238;2022-07-31T10:58:15;3.10;;;2.10;;
1082;SDS011;530;51.448;7.238;2022-07-31T11:00:43;2.50;;;2.20;;
1082;SDS011;530;51.448;7.238;2022-07-31T11:05:38;3.03;;;2.73;;
1082;SDS011;530;51.448;7.238;2022-07-31T11:08:05;3.50;;;2.47;;
1082;SDS011;530;51.448;7.238;2022-07-31T11:10:34;2.23;;;2.03;;
1082;SDS011;530;51.448;7.238;2022-07-31T11:15:25;2.90;;;2.40;;
1082;SDS011;530;51.448;7.238;2022-07-31T11:17:52;6.00;;;3.00;;
1082;SDS011;530;51.448;7.238;2022-07-31T11:20:28;7.13;;;2.47;;
1082;SDS011;530;51.448;7.238;2022-07-31T11:22:56;3.60;;;2.90;;
1082;SDS011;530;51.448;7.238;2022-07-31T11:25:29;2.97;;;2.67;;
1082;SDS011;530;51.448;7.238;2022-07-31T11:27:57;3.00;;;2.20;;
1082;SDS011;530;51.448;7.238;2022-07-31T11:30:33;2.57;;;2.37;;
1082;SDS011;530;51.448;7.238;2022-07-31T11:33:10;3.13;;;2.43;;
1082;SDS011;530;51.448;7.238;2022-07-31T11:35:37;3.00;;;2.70;;
1082;SDS011;530;51.448;7.238;2022-07-31T11:38:03;2.80;;;2.60;;
1082;SDS011;530;51.448;7.238;2022-07-31T11:40:29;4.10;;;2.60;;
1082;SDS011;530;51.448;7.238;2022-07-31T11:42:54;3.10;;;2.90;;
1082;SDS011;530;51.448;7.238;2022-07-31T11:45:21;3.53;;;2.77;;
1082;SDS011;530;51.448;7.238;2022-07-31T11:47:47;2.77;;;2.50;;
1082;SDS011;530;51.448;7.238;2022-07-31T11:50:15;3.43;;;3.10;;
1082;SDS011;530;51.448;7.238;2022-07-31T11:52:42;3.00;;;2.70;;
1082;SDS011;530;51.448;7.238;2022-07-31T11:55:09;3.37;;;3.10;;
1082;SDS011;530;51.448;7.238;2022-07-31T11:57:38;4.97;;;3.37;;
1082;SDS011;530;51.448;7.238;2022-07-31T12:00:05;2.80;;;2.60;;
1082;SDS011;530;51.448;7.238;2022-07-31T12:02:32;4.10;;;3.00;;
1082;SDS011;530;51.448;7.238;2022-07-31T12:05:01;3.47;;;2.80;;
1082;SDS011;530;51.448;7.238;2022-07-31T12:07:28;4.97;;;3.13;;
1082;SDS011;530;51.448;7.238;2022-07-31T12:09:54;3.67;;;3.37;;
1082;SDS011;530;51.448;7.238;2022-07-31T12:12:20;3.30;;;2.60;;
1082;SDS011;530;51.448;7.238;2022-07-31T12:14:46;3.20;;;2.93;;
1082;SDS011;530;51.448;7.238;2022-07-31T12:17:18;3.70;;;3.10;;
1082;SDS011;530;51.448;7.238;2022-07-31T12:19:45;3.13;;;2.87;;
1082;SDS011;530;51.448;7.238;2022-07-31T12:22:11;3.83;;;3.30;;
1082;SDS011;530;51.448;7.238;2022-07-31T12:24:38;5.57;;;3.57;;
1082;SDS011;530;51.448;7.238;2022-07-31T12:27:04;3.57;;;3.03;;
1082;SDS011;530;51.448;7.238;2022-07-31T12:29:37;4.73;;;2.97;;
1082;SDS011;530;51.448;7.238;2022-07-31T12:32:04;5.97;;;3.30;;
1082;SDS011;530;51.448;7.238;2022-07-31T12:34:32;4.50;;;3.33;;
1082;SDS011;530;51.448;7.238;2022-07-31T12:37:06;4.33;;;3.50;;
1082;SDS011;530;51.448;7.238;2022-07-31T12:39:49;4.17;;;3.30;;
1082;SDS011;530;51.448;7.238;2022-07-31T12:42:20;3.40;;;3.10;;
1082;SDS011;530;51.448;7.238;2022-07-31T12:44:47;3.70;;;3.40;;
1082;SDS011;530;51.448;7.238;2022-07-31T12:47:20;3.87;;;3.27;;
1082;SDS011;530;51.448;7.238;2022-07-31T12:49:45;3.67;;;3.20;;
1082;SDS011;530;51.448;7.238;2022-07-31T12:52:11;6.10;;;3.10;;
1082;SDS011;530;51.448;7.238;2022-07-31T12:54:37;4.40;;;3.03;;
1082;SDS011;530;51.448;7.238;2022-07-31T12:57:03;3.30;;;3.00;;
1082;SDS011;530;51.448;7.238;2022-07-31T12:59:28;6.63;;;3.00;;
1082;SDS011;530;51.448;7.238;2022-07-31T13:01:54;3.23;;;2.87;;
1082;SDS011;530;51.448;7.238;2022-07-31T13:04:20;5.27;;;2.87;;
1082;SDS011;530;51.448;7.238;2022-07-31T13:06:46;3.20;;;3.00;;
1082;SDS011;530;51.448;7.238;2022-07-31T13:09:13;3.50;;;3.20;;
1082;SDS011;530;51.448;7.238;2022-07-31T13:11:38;3.20;;;3.00;;
1082;SDS011;530;51.448;7.238;2022-07-31T13:14:04;3.47;;;3.10;;
1082;SDS011;530;51.448;7.238;2022-07-31T13:16:30;5.67;;;3.10;;
1082;SDS011;530;51.448;7.238;2022-07-31T13:18:55;3.53;;;3.20;;
1082;SDS011;530;51.448;7.238;2022-07-31T13:21:21;2.90;;;2.70;;
1082;SDS011;530;51.448;7.238;2022-07-31T13:23:47;3.60;;;3.30;;
1082;SDS011;530;51.448;7.238;2022-07-31T13:26:12;3.50;;;3.00;;
1082;SDS011;530;51.448;7.238;2022-07-31T13:28:38;3.00;;;2.70;;
1082;SDS011;530;51.448;7.238;2022-07-31T13:31:04;3.23;;;2.70;;
1082;SDS011;530;51.448;7.238;2022-07-31T13:33:30;3.23;;;2.93;;
1082;SDS011;530;51.448;7.238;2022-07-31T13:35:55;2.70;;;2.50;;
1082;SDS011;530;51.448;7.238;2022-07-31T13:38:21;3.20;;;2.90;;
1082;SDS011;530;51.448;7.238;2022-07-31T13:40:47;4.43;;;2.90;;
1082;SDS011;530;51.448;7.238;2022-07-31T13:43:31;3.47;;;3.17;;
1082;SDS011;530;51.448;7.238;2022-07-31T13:45:57;3.20;;;2.83;;
1082;SDS011;530;51.448;7.238;2022-07-31T13:48:22;3.10;;;2.90;;
1082;SDS011;530;51.448;7.238;2022-07-31T13:50:48;3.83;;;3.43;;
1082;SDS011;530;51.448;7.238;2022-07-31T13:53:14;3.27;;;2.80;;
1082;SDS011;530;51.448;7.238;2022-07-31T13:55:39;4.10;;;2.83;;
1082;SDS011;530;51.448;7.238;2022-07-31T13:58:05;5.03;;;3.03;;
1082;SDS011;530;51.448;7.238;2022-07-31T14:00:32;3.30;;;2.90;;
1082;SDS011;530;51.448;7.238;2022-07-31T14:02:58;4.60;;;3.40;;
1082;SDS011;530;51.448;7.238;2022-07-31T14:05:25;3.93;;;3.00;;
1082;SDS011;530;51.448;7.238;2022-07-31T14:07:51;3.93;;;3.63;;
1082;SDS011;530;51.448;7.238;2022-07-31T14:10:17;3.27;;;3.00;;
1082;SDS011;530;51.448;7.238;2022-07-31T14:12:42;3.67;;;3.07;;
1082;SDS011;530;51.448;7.238;2022-07-31T14:15:08;4.00;;;3.70;;
1082;SDS011;530;51.448;7.238;2022-07-31T14:17:34;3.40;;;3.20;;
1082;SDS011;530;51.448;7.238;2022-07-31T14:20:00;4.00;;;3.70;;
1082;SDS011;530;51.448;7.238;2022-07-31T14:22:27;3.83;;;3.53;;
1082;SDS011;530;51.448;7.238;2022-07-31T14:24:53;3.57;;;3.30;;
1082;SDS011;530;51.448;7.238;2022-07-31T14:27:19;4.10;;;3.70;;
1082;SDS011;530;51.448;7.238;2022-07-31T14:29:44;4.03;;;3.73;;
1082;SDS011;530;51.448;7.238;2022-07-31T14:32:10;4.00;;;3.70;;
1082;SDS011;530;51.448;7.238;2022-07-31T14:34:36;4.10;;;3.80;;
1082;SDS011;530;51.448;7.238;2022-07-31T14:37:02;4.23;;;3.83;;
1082;SDS011;530;51.448;7.238;2022-07-31T14:39:28;4.10;;;3.70;;
1082;SDS011;530;51.448;7.238;2022-07-31T14:41:54;4.10;;;3.70;;
1082;SDS011;530;51.448;7.238;2022-07-31T14:44:20;5.60;;;4.10;;
1082;SDS011;530;51.448;7.238;2022-07-31T14:46:45;4.80;;;3.93;;
1082;SDS011;530;51.448;7.238;2022-07-31T14:49:11;4.03;;;3.70;;
1082;SDS011;530;51.448;7.238;2022-07-31T14:51:37;5.03;;;3.77;;
1082;SDS011;530;51.448;7.238;2022-07-31T14:54:03;4.30;;;3.90;;
1082;SDS011;530;51.448;7.238;2022-07-31T14:56:29;4.53;;;4.13;;
1082;SDS011;530;51.448;7.238;2022-07-31T14:58:55;4.27;;;3.97;;
1082;SDS011;530;51.448;7.238;2022-07-31T15:01:21;4.47;;;4.17;;
1082;SDS011;530;51.448;7.238;2022-07-31T15:03:46;5.03;;;3.87;;
1082;SDS011;530;51.448;7.238;2022-07-31T15:06:14;4.53;;;4.13;;
1082;SDS011;530;51.448;7.238;2022-07-31T15:08:40;4.60;;;4.20;;
1082;SDS011;530;51.448;7.238;2022-07-31T15:11:06;4.57;;;4.20;;
1082;SDS011;530;51.448;7.238;2022-07-31T15:13:32;4.50;;;4.10;;
1082;SDS011;530;51.448;7.238;2022-07-31T15:15:57;4.70;;;4.20;;
1082;SDS011;530;51.448;7.238;2022-07-31T15:18:23;4.53;;;4.13;;
1082;SDS011;530;51.448;7.238;2022-07-31T15:20:49;4.97;;;4.57;;
1082;SDS011;530;51.448;7.238;2022-07-31T15:23:15;4.70;;;4.30;;
1082;SDS011;530;51.448;7.238;2022-07-31T15:25:40;4.43;;;4.03;;
1082;SDS011;530;51.448;7.238;2022-07-31T15:28:06;5.03;;;4.60;;
1082;SDS011;530;51.448;7.238;2022-07-31T15:30:32;4.10;;;3.80;;
1082;SDS011;530;51.448;7.238;2022-07-31T15:32:58;4.50;;;3.90;;
1082;SDS011;530;51.448;7.238;2022-07-31T15:35:23;5.17;;;4.40;;
1082;SDS011;530;51.448;7.238;2022-07-31T15:37:49;4.23;;;3.53;;
1082;SDS011;530;51.448;7.238;2022-07-31T15:40:15;4.50;;;4.10;;
1082;SDS011;530;51.448;7.238;2022-07-31T15:42:42;4.77;;;3.70;;
1082;SDS011;530;51.448;7.238;2022-07-31T15:45:12;3.97;;;3.60;;
1082;SDS011;530;51.448;7.238;2022-07-31T15:47:40;10.83;;;4.20;;